Latest Coastal Weather Observations for Gladstone

IDQ60701

Issued at 2:15 am EST Thursday 17 April 2014 (issued every 10 minutes, with the page automatically refreshed every 10 minutes)

About coastal observations | Map of coastal stations | Coastal observations for QLD | Marine services | Other Formats
Station Details ID: 039123 Name: GLADSTONE RADAR Lat: -23.86 Lon: 151.26 Height: 74.5 m
Data from the previous 72 hours. | See also: Recent months at Gladstone
Date/Time
EST
Temp

°C
Wind Pressure Rain
since 9am
mm
Weather Cloud Vis
km
Sea
Height
m
Swell
Dir
 
Speed
knots
Gust
knots
hPa Trend Height
m
Period
s
Dir
17/02:00am 21.4 S 5 7 1015.6 - 0.0 - - - - - - -
17/01:30am 21.3 S 6 7 1015.8 - 0.0 - - - - - - -
17/01:00am 21.5 S 5 7 1016.0 - 0.0 - - - - - - -
17/12:30am 21.7 S 5 7 1016.3 - 0.0 - - - - - - -
17/12:00am 21.9 S 5 7 1016.1 - 0.0 - - - - - - -
 
Date/Time
EST
Temp

°C
Wind Pressure Rain
since 9am
mm
Weather Cloud Vis
km
Sea
Height
m
Swell
Dir
 
Speed
knots
Gust
knots
hPa Trend Height
m
Period
s
Dir
16/11:30pm 22.0 WSW 1 3 1016.2 - 0.0 - - - - - - -
16/11:00pm 22.1 WSW 3 4 1016.2 - 0.0 - - - - - - -
16/10:30pm 22.7 NW 1 3 1016.3 - 0.0 - - - - - - -
16/10:00pm 22.4 W 3 4 1016.2 - 0.0 - - - - - - -
16/09:30pm 22.4 N 3 5 1016.1 - 0.0 - - - - - - -
16/09:00pm 22.3 NNE 4 5 1015.7 - 0.0 - - - - - - -
16/08:30pm 22.2 NE 4 5 1015.9 - 0.0 - - - - - - -
16/08:00pm 22.8 NE 3 6 1015.8 - 0.0 - - - - - - -
16/07:30pm 22.8 NE 4 7 1015.5 - 0.0 - - - - - - -
16/07:00pm 22.4 NE 4 6 1015.2 - 0.0 - - - - - - -
16/06:30pm 22.6 N 4 7 1014.8 - 0.0 - - - - - - -
16/06:00pm 22.6 NNE 5 8 1014.1 - 0.0 - - - - - - -
16/05:30pm 23.6 NE 7 10 1013.9 - 0.0 - - - - - - -
16/05:00pm 23.9 NE 7 10 1013.8 - 0.0 - - - - - - -
16/04:30pm 24.6 NE 8 12 1013.6 - 0.0 - - - - - - -
16/04:00pm 25.6 NE 8 11 1013.4 - 0.0 - - - - - - -
16/03:30pm 26.4 NE 7 13 1013.3 - 0.0 - - - - - - -
16/03:00pm 26.2 NE 7 12 1013.3 - 0.0 - - - - - - -
16/02:30pm 26.9 NE 7 11 1013.6 - 0.0 - - - - - - -
16/02:00pm 27.1 NE 8 12 1013.8 - 0.0 - - - - - - -
16/01:30pm 27.1 NE 8 12 1014.1 - 0.0 - - - - - - -
16/01:00pm 26.9 NE 8 11 1014.5 - 0.0 - - - - - - -
16/12:30pm 27.9 NE 7 11 1014.9 - 0.0 - - - - - - -
16/12:00pm 27.2 NE 7 9 1014.9 - 0.0 - - - - - - -
16/11:30am 26.8 NE 8 10 1015.7 - 0.0 - - - - - - -
16/11:00am 26.8 ENE 8 10 1016.1 - 0.0 - - - - - - -
16/10:30am 27.3 ENE 7 11 1016.5 - 0.0 - - - - - - -
16/10:00am 26.1 NE 7 10 1016.8 - 0.0 - - - - - - -
16/09:30am 25.5 E 5 8 1017.0 - 0.0 - - - - - - -
16/09:00am 24.5 ESE 5 7 1016.6 - 0.0 - - - - - - -
16/08:30am 23.3 SE 5 8 1016.9 - 0.0 - - - - - - -
16/08:00am 22.6 SE 6 9 1016.6 - 0.0 - - - - - - -
16/07:30am 21.8 SSE 6 9 1016.4 - 0.0 - - - - - - -
16/07:00am 20.6 SSE 7 11 1016.2 - 0.0 - - - - - - -
16/06:30am 19.8 SSE 7 11 1015.8 - 0.0 - - - - - - -
16/06:00am 19.7 SSE 8 11 1015.2 - 0.0 - - - - - - -
16/05:30am 19.9 SSE 8 11 1015.3 - 0.0 - - - - - - -
16/05:00am 19.9 SSE 7 10 1015.2 - 0.0 - - - - - - -
16/04:30am 20.1 SSE 7 10 1015.0 - 0.0 - - - - - - -
16/04:00am 20.2 SSE 7 11 1014.6 - 0.0 - - - - - - -
16/03:30am 20.5 SSE 7 12 1014.5 - 0.0 - - - - - - -
16/03:00am 20.6 SSE 7 11 1014.3 - 0.0 - - - - - - -
16/02:30am 20.7 SSE 7 10 1014.8 - 0.0 - - - - - - -
16/02:00am 21.0 SSE 8 11 1014.9 - 0.0 - - - - - - -
16/01:30am 21.3 SSE 8 13 1015.1 - 0.0 - - - - - - -
16/01:00am 21.4 SE 8 12 1015.3 - 0.0 - - - - - - -
16/12:30am 21.6 SSE 9 13 1015.6 - 0.0 - - - - - - -
16/12:00am 21.8 SE 8 12 1015.4 - 0.0 - - - - - - -
 
Date/Time
EST
Temp

°C
Wind Pressure Rain
since 9am
mm
Weather Cloud Vis
km
Sea
Height
m
Swell
Dir
 
Speed
knots
Gust
knots
hPa Trend Height
m
Period
s
Dir
15/11:30pm 22.1 SSE 9 11 1015.7 - 0.0 - - - - - - -
15/11:00pm 21.8 SSE 8 10 1015.6 - 0.0 - - - - - - -
15/10:30pm 21.9 ESE 5 7 1015.5 - 0.0 - - - - - - -
15/10:00pm 22.3 SE 8 12 1015.5 - 0.0 - - - - - - -
15/09:30pm 22.7 SE 8 13 1015.5 - 0.0 - - - - - - -
15/09:00pm 23.0 SE 8 11 1015.1 - 0.0 - - - - - - -
15/08:30pm 23.4 E 12 16 1015.3 - 0.0 - - - - - - -
15/08:00pm 23.5 E 9 14 1015.0 - 0.0 - - - - - - -
15/07:30pm 23.0 E 8 10 1014.8 - 0.0 - - - - - - -
15/07:00pm 23.2 E 10 14 1014.4 - 0.0 - - - - - - -
15/06:30pm 23.1 E 9 12 1014.1 - 0.0 - - - - - - -
15/06:00pm 23.1 ENE 8 12 1013.6 - 0.0 - - - - - - -
15/05:30pm 23.7 E 10 14 1013.7 - 0.0 - - - - - - -
15/05:00pm 24.3 ENE 10 15 1013.4 - 0.0 - - - - - - -
15/04:30pm 24.9 ENE 11 14 1013.2 - 0.0 - - - - - - -
15/04:00pm 26.0 ENE 9 13 1013.1 - 0.0 - - - - - - -
15/03:30pm 26.4 ENE 10 15 1012.9 - 0.0 - - - - - - -
15/03:00pm 26.9 ENE 11 15 1012.4 - 0.0 - - - - - - -
15/02:30pm 27.1 ENE 10 14 1013.0 - 0.0 - - - - - - -
15/02:00pm 27.3 ENE 8 12 1013.0 - 0.0 - - - - - - -
15/01:30pm 27.3 ENE 10 14 1013.1 - 0.0 - - - - - - -
15/01:00pm 27.4 ENE 11 15 1013.3 - 0.0 - - - - - - -
15/12:30pm 27.7 ENE 8 13 1013.6 - 0.0 - - - - - - -
15/12:00pm 27.2 ENE 9 14 1013.6 - 0.0 - - - - - - -
15/11:30am 27.0 ESE 10 15 1014.5 - 0.0 - - - - - - -
15/11:00am 25.9 ESE 10 16 1014.9 - 0.0 - - - - - - -
15/10:30am 26.2 SSE 7 20 1015.2 - 0.0 - - - - - - -
15/10:00am 25.5 SE 12 21 1015.3 - 0.0 - - - - - - -
15/09:30am 24.8 SE 13 20 1015.3 - 0.0 - - - - - - -
15/09:00am 24.5 SSE 10 17 1014.9 - 0.2 - - - - - - -
15/08:30am 23.6 SE 11 19 1015.1 - 0.2 - - - - - - -
15/08:00am 23.1 SE 7 11 1015.0 - 0.2 - - - - - - -
15/07:30am 21.6 SSE 6 9 1014.9 - 0.2 - - - - - - -
15/07:00am 20.7 S 7 9 1014.9 - 0.2 - - - - - - -
15/06:30am 20.5 S 6 11 1014.7 - 0.2 - - - - - - -
15/06:00am 20.4 S 6 8 1013.8 - 0.2 - - - - - - -
15/05:30am 20.4 S 6 8 1013.8 - 0.2 - - - - - - -
15/05:00am 20.9 S 7 11 1013.4 - 0.2 - - - - - - -
15/04:30am 21.1 S 7 10 1013.4 - 0.2 - - - - - - -
15/04:00am 21.1 S 8 12 1013.2 - 0.2 - - - - - - -
15/03:30am 21.2 S 8 11 1013.2 - 0.2 - - - - - - -
15/03:00am 21.2 S 7 11 1012.7 - 0.2 - - - - - - -
15/02:30am 21.5 S 7 10 1013.1 - 0.2 - - - - - - -
15/02:00am 21.6 S 7 9 1013.2 - 0.2 - - - - - - -
15/01:30am 21.4 S 7 10 1013.1 - 0.2 - - - - - - -
15/01:00am 21.6 S 7 11 1013.0 - 0.2 - - - - - - -
15/12:30am 21.6 S 7 10 1012.9 - 0.2 - - - - - - -
15/12:00am 21.5 SSW 6 9 1012.6 - 0.2 - - - - - - -
 
Date/Time
EST
Temp

°C
Wind Pressure Rain
since 9am
mm
Weather Cloud Vis
km
Sea
Height
m
Swell
Dir
 
Speed
knots
Gust
knots
hPa Trend Height
m
Period
s
Dir
14/11:30pm 21.7 SSW 5 8 1013.1 - 0.2 - - - - - - -
14/11:00pm 21.7 SW 5 8 1013.2 - 0.2 - - - - - - -
14/10:30pm 21.9 SSW 6 9 1013.1 - 0.2 - - - - - - -
14/10:00pm 22.2 SW 6 8 1013.2 - 0.2 - - - - - - -
14/09:30pm 22.4 SW 6 10 1013.2 - 0.2 - - - - - - -
14/09:00pm 22.7 SSW 9 13 1012.6 - 0.2 - - - - - - -
14/08:30pm 22.6 SW 5 9 1012.6 - 0.2 - - - - - - -
14/08:00pm 23.1 SSW 5 9 1012.3 - 0.2 - - - - - - -
14/07:30pm 23.1 SSW 6 10 1011.8 - 0.2 - - - - - - -
14/07:00pm 23.3 SSW 6 10 1011.3 - 0.2 - - - - - - -
14/06:30pm 23.3 SSW 6 10 1010.7 - 0.2 - - - - - - -
14/06:00pm 23.7 SSW 7 10 1010.0 - 0.2 - - - - - - -
14/05:30pm 24.1 S 9 16 1010.2 - 0.2 - - - - - - -
14/05:00pm 24.4 S 8 14 1009.7 - 0.2 - - - - - - -
14/04:30pm 24.3 SSW 9 14 1009.1 - 0.2 - - - - - - -
14/04:00pm 24.5 SSW 8 14 1008.7 - 0.2 - - - - - - -
14/03:30pm 24.8 S 8 17 1008.3 - 0.2 - - - - - - -
14/03:00pm 25.3 S 8 15 1007.5 - 0.2 - - - - - - -
14/02:30pm 25.4 S 7 14 1007.6 - 0.2 - - - - - - -
14/02:00pm 25.8 SSW 8 13 1007.4 - 0.2 - - - - - - -
14/01:30pm 26.2 S 9 14 1007.2 - 0.2 - - - - - - -
14/01:00pm 26.1 SSE 10 19 1007.4 - 0.2 - - - - - - -
14/12:30pm 25.4 S 13 20 1007.6 - 0.2 - - - - - - -
14/12:00pm 25.2 SSE 11 20 1007.4 - 0.0 - - - - - - -
14/11:30am 24.7 SSE 10 20 1008.2 - 0.0 - - - - - - -
14/11:00am 23.3 S 9 16 1008.6 - 0.0 - - - - - - -
14/10:30am 21.8 S 11 20 1008.9 - 0.0 - - - - - - -
14/10:00am 22.1 SSW 8 14 1008.8 - 0.0 - - - - - - -
14/09:30am 22.3 SW 8 13 1008.8 - 0.0 - - - - - - -
14/09:00am 22.1 S 9 16 1008.0 - 64.4 - - - - - - -
14/08:30am 22.2 SSE 12 19 1007.8 - 64.4 - - - - - - -
14/08:00am 21.7 SE 16 26 1006.9 - 64.4 - - - - - - -
14/07:30am 21.1 SE 17 27 1006.4 - 64.4 - - - - - - -
14/07:00am 20.9 ESE 17 27 1006.5 - 64.4 - - - - - - -
14/06:30am 20.3 ESE 16 27 1006.6 - 64.4 - - - - - - -
14/06:03am 20.2 SE 17 28 1007.0 - 64.2 - - - - - - -
14/06:00am 20.2 SE 17 25 1006.6 - 64.2 - - - - - - -
14/05:30am 20.1 ESE 17 28 1007.1 - 64.2 - - - - - - -
14/05:25am 20.1 SE 16 28 1007.3 - 64.0 - - - - - - -
14/05:00am 20.0 SE 14 21 1007.4 - 64.0 - - - - - - -
14/04:30am 19.8 SSE 13 19 1007.8 - 64.0 - - - - - - -
14/04:00am 19.9 SE 13 19 1008.4 - 63.6 - - - - - - -
14/03:30am 19.8 SE 13 21 1008.6 - 63.2 - - - - - - -
14/03:00am 19.6 ESE 10 15 1008.7 - 62.6 - - - - - - -
14/02:30am 19.4 SE 12 17 1008.6 - 62.2 - - - - - - -

Other Formats:

Comma delimited format used in spreadsheet applications
http://www.bom.gov.au/fwo/IDQ60701/IDQ60701.94380.axf

JavaScript Object Notation format (JSON) in row-major order
http://www.bom.gov.au/fwo/IDQ60701/IDQ60701.94380.json